Time;durP1;ratioP1;P1;durP2;ratioP2;P2;SDS_P1;SDS_P2;PMS_P1;PMS_P2;Temp;Humidity;BMP_temperature;BMP_pressure;BME280_temperature;BME280_humidity;BME280_pressure;Samples;Min_cycle;Max_cycle;Signal;HPM_P1;HPM_P2
2023/03/30 00:01:19;;;;;;;20.45;3.58;;;11.90;99.90;;;;;;4968743;28;20131;-81
2023/03/30 00:03:46;;;;;;;18.17;3.08;;;11.90;99.90;;;;;;4957235;28;20057;-81
2023/03/30 00:06:19;;;;;;;28.52;4.00;;;11.90;99.90;;;;;;4963756;28;20680;-82
2023/03/30 00:08:45;;;;;;;25.17;3.65;;;11.90;99.90;;;;;;4949459;28;20030;-82
2023/03/30 00:11:14;;;;;;;31.77;4.63;;;11.90;99.90;;;;;;4949541;28;20051;-82
2023/03/30 00:13:41;;;;;;;20.98;4.20;;;11.90;99.90;;;;;;4963362;28;20026;-81
2023/03/30 00:16:09;;;;;;;22.10;4.07;;;11.90;99.90;;;;;;4971970;28;20045;-82
2023/03/30 00:18:36;;;;;;;29.63;4.78;;;11.90;99.90;;;;;;4972005;28;20035;-83
2023/03/30 00:21:02;;;;;;;21.27;3.58;;;11.80;99.90;;;;;;4972563;28;20034;-84
2023/03/30 00:23:28;;;;;;;32.85;4.43;;;11.70;99.90;;;;;;4971359;28;20106;-81
2023/03/30 00:25:55;;;;;;;28.42;4.90;;;11.70;99.90;;;;;;4970304;28;20534;-81
2023/03/30 00:28:21;;;;;;;32.35;4.22;;;11.70;99.90;;;;;;4970593;28;20027;-82
2023/03/30 00:30:48;;;;;;;29.70;4.22;;;11.60;99.90;;;;;;4971414;28;20479;-81
2023/03/30 00:33:14;;;;;;;23.35;3.80;;;11.50;99.90;;;;;;4970381;28;20034;-81
2023/03/30 00:35:40;;;;;;;32.30;4.45;;;11.50;99.90;;;;;;4972006;28;20031;-83
2023/03/30 00:38:05;;;;;;;36.47;4.32;;;11.30;99.90;;;;;;4971321;28;20527;-81
2023/03/30 00:40:33;;;;;;;24.30;3.38;;;11.30;99.90;;;;;;4970685;28;20038;-81
2023/03/30 00:43:00;;;;;;;20.50;4.32;;;11.30;99.90;;;;;;4969147;28;20025;-82
2023/03/30 00:45:27;;;;;;;32.25;5.32;;;11.30;99.90;;;;;;4952236;28;20043;-81
2023/03/30 00:48:04;;;;;;;34.97;3.88;;;11.30;99.90;;;;;;4958068;28;20094;-83
2023/03/30 00:51:01;;;;;;;32.78;4.00;;;11.40;99.90;;;;;;4971693;28;20487;-80
2023/03/30 00:53:34;;;;;;;38.35;5.07;;;11.40;99.90;;;;;;4954530;28;20039;-82
2023/03/30 00:56:03;;;;;;;31.92;5.07;;;11.50;99.90;;;;;;4958161;28;20035;-83
2023/03/30 00:58:30;;;;;;;37.08;4.80;;;11.50;99.90;;;;;;4963186;28;20110;-83
2023/03/30 01:00:58;;;;;;;38.78;5.40;;;11.50;99.90;;;;;;4966777;28;20035;-83
2023/03/30 01:03:30;;;;;;;39.00;5.47;;;11.50;99.90;;;;;;4971464;28;20047;-82
2023/03/30 01:05:58;;;;;;;40.25;4.68;;;11.50;99.90;;;;;;4985074;28;20093;-82
2023/03/30 01:08:31;;;;;;;42.38;5.63;;;11.50;99.90;;;;;;4989760;28;20030;-84
2023/03/30 01:11:00;;;;;;;36.60;4.78;;;11.50;99.90;;;;;;4990662;28;20045;-83
2023/03/30 01:13:37;;;;;;;32.92;4.55;;;11.50;99.90;;;;;;4989719;28;20022;-81
2023/03/30 01:16:22;;;;;;;37.13;4.95;;;11.50;99.90;;;;;;4990416;28;20057;-85
2023/03/30 01:19:15;;;;;;;40.30;5.28;;;11.50;99.90;;;;;;4982316;28;20054;-83
2023/03/30 01:22:18;;;;;;;36.50;5.70;;;11.50;99.90;;;;;;4990702;28;20524;-82
2023/03/30 01:25:01;;;;;;;34.30;4.78;;;11.50;99.90;;;;;;4971216;28;20022;-82
2023/03/30 01:27:48;;;;;;;38.13;5.07;;;11.50;99.90;;;;;;4971691;28;20898;-81
2023/03/30 01:30:14;;;;;;;43.25;5.50;;;11.50;99.90;;;;;;4978758;28;20086;-81
2023/03/30 01:33:07;;;;;;;37.70;4.68;;;11.40;99.90;;;;;;4989248;28;20065;-83
2023/03/30 01:35:59;;;;;;;42.00;5.18;;;11.40;99.90;;;;;;4989751;28;20453;-82
2023/03/30 01:38:36;;;;;;;36.17;5.13;;;11.40;99.90;;;;;;4988512;28;20124;-81
2023/03/30 01:41:28;;;;;;;39.88;5.53;;;11.50;99.90;;;;;;4971546;28;20038;-81
2023/03/30 01:44:05;;;;;;;32.92;4.38;;;11.40;99.90;;;;;;4972220;28;20117;-80
2023/03/30 01:46:36;;;;;;;29.83;5.32;;;11.40;99.90;;;;;;4990062;28;20031;-81
2023/03/30 01:49:04;;;;;;;39.28;5.03;;;11.40;99.90;;;;;;4977576;28;20080;-83
2023/03/30 01:51:37;;;;;;;31.75;5.22;;;11.40;99.90;;;;;;4974021;28;20105;-80
2023/03/30 01:54:21;;;;;;;44.28;6.35;;;11.40;99.90;;;;;;4989053;28;20230;-82
2023/03/30 01:56:53;;;;;;;45.55;5.10;;;11.40;99.90;;;;;;4988176;28;20042;-81
2023/03/30 01:59:55;;;;;;;42.75;5.50;;;11.30;99.90;;;;;;4965455;28;20388;-83
2023/03/30 02:02:23;;;;;;;49.67;6.15;;;11.30;99.90;;;;;;4984738;28;20238;-84
2023/03/30 02:04:52;;;;;;;34.45;4.32;;;11.30;99.90;;;;;;4989596;28;20064;-83
2023/03/30 02:07:23;;;;;;;35.40;5.28;;;11.30;99.90;;;;;;4988775;28;20026;-80
2023/03/30 02:09:50;;;;;;;40.20;6.33;;;11.30;99.90;;;;;;4957241;28;22288;-81
2023/03/30 02:12:18;;;;;;;56.33;6.82;;;11.30;99.90;;;;;;4984449;28;20030;-80
2023/03/30 02:14:46;;;;;;;41.45;6.68;;;11.30;99.90;;;;;;4969705;28;20470;-81
2023/03/30 02:17:18;;;;;;;42.63;5.00;;;11.30;99.90;;;;;;4975832;28;20049;-82
2023/03/30 02:19:45;;;;;;;39.28;4.93;;;11.30;99.90;;;;;;4987354;28;20034;-81
2023/03/30 02:22:12;;;;;;;48.05;5.45;;;11.30;99.90;;;;;;4988412;28;20498;-80
2023/03/30 02:24:39;;;;;;;48.72;6.07;;;11.20;99.90;;;;;;4988221;28;20092;-81
2023/03/30 02:27:05;;;;;;;50.40;6.82;;;11.20;99.90;;;;;;4987006;28;20034;-83
2023/03/30 02:29:33;;;;;;;45.70;6.05;;;11.20;99.90;;;;;;4986860;28;20030;-82
2023/03/30 02:31:59;;;;;;;43.40;6.07;;;11.20;99.90;;;;;;4987971;28;20403;-80
2023/03/30 02:34:45;;;;;;;44.67;5.97;;;11.10;99.90;;;;;;4978717;28;20027;-82
2023/03/30 02:37:20;;;;;;;43.42;4.80;;;11.20;99.90;;;;;;4954389;28;20415;-82
2023/03/30 02:39:54;;;;;;;43.78;5.53;;;11.20;99.90;;;;;;4952930;28;20046;-82
2023/03/30 02:42:44;;;;;;;51.85;6.68;;;11.30;99.90;;;;;;4971978;28;20041;-80
2023/03/30 02:45:33;;;;;;;41.80;5.43;;;11.30;99.90;;;;;;4989409;28;20094;-82
2023/03/30 02:48:23;;;;;;;51.65;5.60;;;11.30;99.90;;;;;;4967800;28;20031;-83
2023/03/30 02:51:02;;;;;;;51.85;5.60;;;11.30;99.90;;;;;;4969285;28;20049;-79
2023/03/30 02:53:39;;;;;;;40.83;6.25;;;11.30;99.90;;;;;;4980352;28;20058;-81
2023/03/30 02:56:05;;;;;;;46.55;5.80;;;11.30;99.90;;;;;;4980780;28;20031;-82
2023/03/30 02:58:39;;;;;;;36.85;4.68;;;11.30;99.90;;;;;;4958166;28;20145;-81
2023/03/30 03:01:09;;;;;;;38.03;4.63;;;11.30;99.90;;;;;;4986237;28;20049;-82
2023/03/30 03:03:40;;;;;;;34.55;4.35;;;11.20;99.90;;;;;;4989297;28;20117;-82
2023/03/30 03:06:08;;;;;;;61.67;6.65;;;11.10;99.90;;;;;;4973176;28;20049;-84
2023/03/30 03:08:37;;;;;;;40.10;5.30;;;11.10;99.90;;;;;;4969738;28;20085;-82
2023/03/30 03:11:03;;;;;;;48.90;5.75;;;11.10;99.90;;;;;;4978190;28;20464;-82
2023/03/30 03:13:29;;;;;;;52.85;7.20;;;11.10;99.90;;;;;;4988552;28;20026;-80
2023/03/30 03:15:55;;;;;;;59.40;5.95;;;11.10;99.90;;;;;;4971196;28;20058;-84
2023/03/30 03:18:22;;;;;;;55.33;6.60;;;11.10;99.90;;;;;;4987652;28;20387;-82
2023/03/30 03:20:49;;;;;;;58.28;6.35;;;11.00;99.90;;;;;;4971264;28;20038;-83
2023/03/30 03:23:15;;;;;;;43.95;5.72;;;11.00;99.90;;;;;;4987708;28;20466;-82
2023/03/30 03:25:41;;;;;;;41.67;6.03;;;11.10;99.90;;;;;;4987837;28;20037;-82
2023/03/30 03:28:06;;;;;;;45.35;5.38;;;11.10;99.90;;;;;;4989014;28;20073;-83
2023/03/30 03:30:32;;;;;;;46.53;5.30;;;11.10;99.90;;;;;;4986639;28;20116;-81
2023/03/30 03:32:57;;;;;;;43.53;5.82;;;11.10;99.90;;;;;;4989131;28;20030;-83
2023/03/30 03:35:23;;;;;;;43.35;5.63;;;11.00;99.90;;;;;;4968224;28;20878;-82
2023/03/30 03:37:49;;;;;;;35.65;4.95;;;11.00;99.90;;;;;;4976061;28;20030;-83
2023/03/30 03:40:15;;;;;;;34.88;4.57;;;11.00;99.90;;;;;;4986754;28;20032;-82
2023/03/30 03:42:41;;;;;;;45.10;6.00;;;11.00;99.90;;;;;;4989101;28;20393;-83
2023/03/30 03:45:06;;;;;;;50.80;5.75;;;11.00;99.90;;;;;;4988773;28;20102;-82
2023/03/30 03:47:33;;;;;;;39.67;5.10;;;11.00;99.90;;;;;;4988644;28;20034;-82
2023/03/30 03:50:02;;;;;;;52.92;6.38;;;10.90;99.90;;;;;;4989698;28;20045;-83
2023/03/30 03:52:31;;;;;;;48.33;5.95;;;10.90;99.90;;;;;;4972418;28;20065;-84
2023/03/30 03:54:56;;;;;;;45.65;5.43;;;10.90;99.90;;;;;;4992787;28;20450;-83
2023/03/30 03:57:25;;;;;;;49.38;6.03;;;10.90;99.90;;;;;;4992675;28;20037;-82
2023/03/30 03:59:51;;;;;;;43.55;5.47;;;10.90;99.90;;;;;;4975198;28;20654;-82
2023/03/30 04:02:17;;;;;;;52.80;6.95;;;10.90;99.90;;;;;;4992301;28;20502;-82
2023/03/30 04:04:43;;;;;;;50.70;6.00;;;10.90;99.90;;;;;;4993879;28;20617;-82
2023/03/30 04:07:10;;;;;;;40.13;5.60;;;10.90;99.90;;;;;;4991884;28;20041;-82
2023/03/30 04:09:36;;;;;;;46.25;5.55;;;10.90;99.90;;;;;;4989544;28;20085;-83
2023/03/30 04:12:01;;;;;;;42.58;5.07;;;10.80;99.90;;;;;;4992892;28;20038;-84
2023/03/30 04:14:27;;;;;;;49.60;6.38;;;10.70;99.90;;;;;;4991500;28;20030;-83
2023/03/30 04:16:56;;;;;;;52.90;6.63;;;10.60;99.90;;;;;;4991643;28;20604;-83
2023/03/30 04:19:24;;;;;;;46.17;5.55;;;10.60;99.90;;;;;;4974900;28;20494;-84
2023/03/30 04:21:50;;;;;;;53.47;6.65;;;10.50;99.90;;;;;;4979566;28;20034;-82
2023/03/30 04:24:16;;;;;;;51.13;5.68;;;10.50;99.90;;;;;;4973744;28;20030;-82
2023/03/30 04:26:47;;;;;;;40.33;5.60;;;10.50;99.90;;;;;;4961815;28;20034;-83
2023/03/30 04:29:15;;;;;;;44.22;5.97;;;10.50;99.90;;;;;;4980892;28;20564;-81
2023/03/30 04:31:45;;;;;;;45.25;5.80;;;10.50;99.90;;;;;;4983873;28;20414;-82
2023/03/30 04:34:12;;;;;;;53.75;5.63;;;10.60;99.90;;;;;;4987868;28;20026;-82
2023/03/30 04:36:42;;;;;;;60.22;7.53;;;10.60;99.90;;;;;;4986237;28;20049;-81
2023/03/30 04:39:09;;;;;;;64.93;7.10;;;10.70;99.90;;;;;;4982072;28;20115;-80
2023/03/30 04:41:36;;;;;;;48.92;6.90;;;10.70;99.90;;;;;;4959441;28;20030;-83
2023/03/30 04:44:08;;;;;;;48.75;5.60;;;10.70;99.90;;;;;;4984268;28;20027;-82
2023/03/30 04:46:34;;;;;;;51.80;6.20;;;10.70;99.90;;;;;;4982059;28;20513;-82
2023/03/30 04:48:59;;;;;;;48.67;6.18;;;10.70;99.90;;;;;;4991168;28;20038;-82
2023/03/30 04:51:25;;;;;;;44.28;5.00;;;10.70;99.90;;;;;;4990789;28;20034;-81
2023/03/30 04:53:51;;;;;;;42.70;5.60;;;10.70;99.90;;;;;;4991366;28;20460;-81
2023/03/30 04:56:16;;;;;;;38.40;5.88;;;10.70;99.90;;;;;;4990139;28;20026;-82
2023/03/30 04:58:42;;;;;;;47.80;6.47;;;10.70;99.90;;;;;;4979869;28;20483;-82
2023/03/30 05:01:09;;;;;;;52.25;6.28;;;10.80;99.90;;;;;;4954430;28;20039;-82
2023/03/30 05:03:35;;;;;;;52.25;6.32;;;10.70;99.90;;;;;;4954041;28;20034;-83
2023/03/30 05:06:00;;;;;;;56.10;6.40;;;10.70;99.90;;;;;;4970175;28;20474;-82
2023/03/30 05:08:26;;;;;;;48.03;4.95;;;10.70;99.90;;;;;;4953196;28;20043;-82
2023/03/30 05:10:52;;;;;;;60.63;7.72;;;10.70;99.90;;;;;;4963807;28;20047;-81
2023/03/30 05:13:17;;;;;;;51.67;6.53;;;10.70;99.90;;;;;;4972322;28;20034;-81
2023/03/30 05:15:43;;;;;;;49.65;6.15;;;10.70;99.90;;;;;;4969445;28;20524;-81
2023/03/30 05:18:08;;;;;;;61.60;6.65;;;10.80;99.90;;;;;;4971843;28;20023;-82
2023/03/30 05:20:34;;;;;;;60.13;6.22;;;10.80;99.90;;;;;;4971047;28;20065;-82
2023/03/30 05:23:00;;;;;;;56.42;6.05;;;10.70;99.90;;;;;;4971857;28;20460;-81
2023/03/30 05:25:26;;;;;;;56.17;6.43;;;10.60;99.90;;;;;;4971283;28;20039;-83
2023/03/30 05:27:51;;;;;;;61.80;7.15;;;10.60;99.90;;;;;;4953921;28;20034;-81
2023/03/30 05:30:17;;;;;;;60.80;6.40;;;10.60;99.90;;;;;;4971125;28;20065;-84
2023/03/30 05:32:43;;;;;;;62.25;7.50;;;10.70;99.90;;;;;;4964748;28;20098;-84
2023/03/30 05:35:10;;;;;;;57.60;5.72;;;10.70;99.90;;;;;;4960417;28;20204;-83
2023/03/30 05:37:36;;;;;;;68.95;7.07;;;10.80;99.90;;;;;;4970907;28;20027;-81
2023/03/30 05:40:06;;;;;;;60.05;6.18;;;10.70;99.90;;;;;;4954193;28;20046;-82
2023/03/30 05:42:31;;;;;;;57.97;6.40;;;10.70;99.90;;;;;;4957573;28;20042;-82
2023/03/30 05:44:57;;;;;;;44.90;5.85;;;10.70;99.90;;;;;;4952511;28;20508;-83
2023/03/30 05:47:23;;;;;;;59.38;7.75;;;10.80;99.90;;;;;;4952449;28;20038;-83
2023/03/30 05:49:49;;;;;;;63.05;6.65;;;10.80;99.90;;;;;;4963160;28;20479;-82
2023/03/30 05:52:15;;;;;;;52.10;6.55;;;10.80;99.90;;;;;;4969521;28;20034;-81
2023/03/30 05:54:40;;;;;;;55.97;8.10;;;10.80;99.90;;;;;;4970252;28;20030;-81
2023/03/30 05:57:06;;;;;;;62.40;7.80;;;10.90;99.90;;;;;;4953485;28;20571;-82
2023/03/30 05:59:31;;;;;;;53.50;6.00;;;10.90;99.90;;;;;;4968131;28;20053;-81
2023/03/30 06:01:57;;;;;;;52.78;7.43;;;10.90;99.90;;;;;;4961217;28;20027;-82
2023/03/30 06:04:25;;;;;;;48.03;6.72;;;10.90;99.90;;;;;;4955162;28;20030;-82
2023/03/30 06:06:51;;;;;;;42.42;5.65;;;10.90;99.90;;;;;;4961900;28;20038;-82
2023/03/30 06:09:18;;;;;;;52.53;6.75;;;10.90;99.90;;;;;;4969161;28;20447;-82
2023/03/30 06:11:44;;;;;;;70.93;9.93;;;10.90;99.90;;;;;;4966889;28;20085;-82
2023/03/30 06:14:09;;;;;;;64.45;6.50;;;10.80;99.90;;;;;;4965011;28;20027;-82
2023/03/30 06:16:35;;;;;;;61.78;7.50;;;10.80;99.90;;;;;;4966709;28;20486;-81
2023/03/30 06:19:01;;;;;;;54.08;7.15;;;10.90;99.90;;;;;;4962766;28;20446;-81
2023/03/30 06:21:28;;;;;;;66.57;6.63;;;10.90;99.90;;;;;;4963892;28;20026;-82
2023/03/30 06:23:53;;;;;;;56.15;7.00;;;10.90;99.90;;;;;;4962325;28;20031;-83
2023/03/30 06:26:19;;;;;;;58.28;7.20;;;10.80;99.90;;;;;;4962259;28;20046;-84
2023/03/30 06:28:44;;;;;;;56.25;7.30;;;10.90;99.90;;;;;;4945580;28;20054;-81
2023/03/30 06:31:10;;;;;;;58.28;7.05;;;10.90;99.90;;;;;;4958958;28;20380;-83
2023/03/30 06:33:36;;;;;;;56.10;6.85;;;11.00;99.90;;;;;;4943293;28;20031;-83
2023/03/30 06:36:02;;;;;;;41.60;5.63;;;11.10;99.90;;;;;;4951896;28;20105;-84
2023/03/30 06:38:28;;;;;;;48.78;6.45;;;11.20;99.90;;;;;;4953152;28;20094;-83
2023/03/30 06:40:53;;;;;;;45.10;5.70;;;11.20;99.90;;;;;;4968474;28;20454;-82
2023/03/30 06:43:22;;;;;;;60.65;6.47;;;11.10;99.90;;;;;;4969661;28;20062;-81
2023/03/30 06:45:52;;;;;;;55.05;7.57;;;11.10;99.90;;;;;;4969767;28;20118;-83
2023/03/30 06:48:19;;;;;;;61.10;6.93;;;11.10;99.90;;;;;;4951602;28;20066;-84
2023/03/30 06:50:46;;;;;;;49.15;6.78;;;11.10;99.90;;;;;;4968993;28;20093;-83
2023/03/30 06:53:12;;;;;;;54.58;6.53;;;11.10;99.90;;;;;;4953923;28;20049;-83
2023/03/30 06:55:38;;;;;;;48.95;6.95;;;11.30;99.90;;;;;;4972304;28;20050;-82
2023/03/30 06:58:03;;;;;;;53.42;6.38;;;11.70;99.90;;;;;;4956554;28;20149;-83
2023/03/30 07:00:30;;;;;;;39.47;5.90;;;11.70;99.90;;;;;;4962946;28;20055;-84
2023/03/30 07:02:56;;;;;;;44.63;7.68;;;12.00;99.90;;;;;;4957546;28;20082;-84
2023/03/30 07:05:27;;;;;;;48.80;5.30;;;12.10;99.90;;;;;;4960305;28;20518;-85
2023/03/30 07:07:53;;;;;;;45.38;6.45;;;12.10;99.90;;;;;;4959582;28;20046;-84
2023/03/30 07:10:19;;;;;;;51.78;6.18;;;12.20;99.90;;;;;;4960102;28;20035;-83
2023/03/30 07:12:45;;;;;;;46.83;5.80;;;12.30;99.90;;;;;;4960496;28;20081;-83
2023/03/30 07:15:12;;;;;;;50.53;7.20;;;12.40;99.90;;;;;;4957977;28;20059;-83
2023/03/30 07:17:38;;;;;;;34.10;5.72;;;12.40;99.90;;;;;;4956070;28;20118;-83
2023/03/30 07:20:06;;;;;;;48.20;6.65;;;12.50;99.90;;;;;;4948718;29;20122;-83
2023/03/30 07:22:32;;;;;;;55.92;6.55;;;12.60;99.90;;;;;;4960654;28;20053;-83
2023/03/30 07:24:57;;;;;;;46.55;5.68;;;12.50;99.90;;;;;;4969458;28;20696;-82
2023/03/30 07:27:23;;;;;;;56.15;6.65;;;12.40;99.90;;;;;;4967552;28;20124;-84
2023/03/30 07:29:49;;;;;;;44.58;5.88;;;12.20;99.90;;;;;;4963656;28;20030;-82
2023/03/30 07:32:16;;;;;;;43.92;6.05;;;12.10;99.90;;;;;;4961199;28;20039;-85
2023/03/30 07:34:42;;;;;;;53.53;6.45;;;12.10;99.90;;;;;;4964335;28;20033;-83
2023/03/30 07:37:07;;;;;;;43.83;7.03;;;12.10;99.90;;;;;;4969813;28;20122;-82
2023/03/30 07:39:33;;;;;;;47.65;7.25;;;12.20;99.90;;;;;;4967355;28;20027;-83
2023/03/30 07:41:59;;;;;;;51.80;6.80;;;12.30;99.90;;;;;;4969289;28;20035;-84
2023/03/30 07:44:28;;;;;;;48.63;7.70;;;12.40;99.90;;;;;;4967160;28;20027;-79
2023/03/30 07:46:54;;;;;;;49.75;7.13;;;12.50;99.90;;;;;;4965017;28;20031;-83
2023/03/30 07:49:20;;;;;;;43.72;7.03;;;12.70;99.90;;;;;;4967346;28;20027;-83
2023/03/30 07:51:46;;;;;;;49.95;5.70;;;12.80;99.90;;;;;;4965402;28;20039;-83
2023/03/30 07:54:12;;;;;;;53.50;6.25;;;12.80;99.90;;;;;;4961306;28;20035;-82
2023/03/30 07:56:38;;;;;;;43.70;5.75;;;12.80;99.90;;;;;;4957881;28;20046;-83
2023/03/30 07:59:04;;;;;;;53.00;7.72;;;12.70;99.90;;;;;;4958872;28;20047;-80
2023/03/30 08:01:31;;;;;;;46.88;5.60;;;12.50;99.90;;;;;;4934161;28;20467;-84
2023/03/30 08:03:57;;;;;;;47.83;6.70;;;12.40;99.90;;;;;;4958162;28;20027;-83
2023/03/30 08:06:23;;;;;;;48.85;6.75;;;12.40;99.90;;;;;;4960487;28;20050;-83
2023/03/30 08:08:48;;;;;;;40.28;5.80;;;12.30;99.90;;;;;;4960546;28;20027;-82
2023/03/30 08:11:15;;;;;;;44.22;5.88;;;12.30;99.90;;;;;;4933988;29;20047;-84
2023/03/30 08:13:40;;;;;;;50.28;5.95;;;12.40;99.90;;;;;;4962144;28;20023;-81
2023/03/30 08:16:07;;;;;;;55.97;7.10;;;12.50;99.90;;;;;;4962197;28;20038;-82
2023/03/30 08:18:33;;;;;;;51.80;6.30;;;12.40;99.90;;;;;;4950379;28;20545;-84
2023/03/30 08:20:59;;;;;;;45.53;6.22;;;12.30;99.90;;;;;;4960484;28;20031;-84
2023/03/30 08:23:24;;;;;;;44.65;6.10;;;12.40;99.90;;;;;;4954980;28;20380;-82
2023/03/30 08:25:51;;;;;;;35.03;5.25;;;12.50;99.90;;;;;;4954532;28;20106;-83
2023/03/30 08:28:18;;;;;;;48.10;6.18;;;12.60;99.90;;;;;;4963230;28;20023;-82
2023/03/30 08:30:44;;;;;;;58.97;7.55;;;12.50;99.90;;;;;;4948657;28;20039;-84
2023/03/30 08:33:10;;;;;;;59.08;6.88;;;12.40;99.90;;;;;;4958842;28;20477;-81
2023/03/30 08:35:35;;;;;;;48.00;6.00;;;12.50;99.90;;;;;;4953770;28;20071;-79
2023/03/30 08:38:01;;;;;;;53.17;5.90;;;12.50;99.90;;;;;;4966930;28;20055;-81
2023/03/30 08:40:26;;;;;;;53.15;5.93;;;12.50;99.90;;;;;;4977914;28;20035;-82
2023/03/30 08:43:17;;;;;;;62.53;7.93;;;12.50;99.90;;;;;;4974746;28;20027;-82
2023/03/30 08:45:43;;;;;;;49.55;6.28;;;12.50;99.90;;;;;;4974188;28;20223;-84
2023/03/30 08:48:21;;;;;;;54.22;6.45;;;12.50;99.90;;;;;;4970160;28;20030;-80
2023/03/30 08:51:00;;;;;;;46.97;5.78;;;12.60;99.90;;;;;;4972013;28;20081;-80
2023/03/30 08:53:32;;;;;;;62.55;6.57;;;12.60;99.90;;;;;;4972140;28;20113;-83
2023/03/30 08:56:06;;;;;;;48.90;5.63;;;12.80;99.90;;;;;;4974923;28;20102;-82
2023/03/30 08:58:57;;;;;;;49.25;6.60;;;12.90;99.90;;;;;;4961205;28;20110;-83
2023/03/30 09:01:55;;;;;;;48.95;7.10;;;13.10;99.90;;;;;;4935120;28;20042;-84
2023/03/30 09:05:00;;;;;;;44.03;6.53;;;13.20;99.90;;;;;;4950374;28;20058;-83
2023/03/30 09:07:31;;;;;;;61.67;7.03;;;13.00;99.90;;;;;;4987196;28;20030;-83
2023/03/30 09:09:58;;;;;;;;;;;12.90;99.90;;;;;;4977086;28;20026;-83
2023/03/30 09:12:36;;;;;;;54.88;7.07;;;12.90;99.90;;;;;;4989826;28;20441;-83
2023/03/30 09:15:15;;;;;;;55.30;7.38;;;12.90;99.90;;;;;;4972917;28;20034;-82
2023/03/30 09:17:45;;;;;;;51.50;6.90;;;12.80;99.90;;;;;;4986605;28;20026;-82
2023/03/30 09:20:18;;;;;;;50.60;6.43;;;12.60;99.90;;;;;;4969883;28;20537;-82
2023/03/30 09:22:44;;;;;;;56.78;6.10;;;12.60;99.90;;;;;;4987678;28;20581;-83
2023/03/30 09:25:16;;;;;;;45.55;5.95;;;12.50;99.90;;;;;;4989261;28;20034;-80
2023/03/30 09:27:52;;;;;;;59.20;8.00;;;12.40;99.90;;;;;;4989655;28;20027;-84
2023/03/30 09:30:29;;;;;;;50.72;6.88;;;12.40;99.90;;;;;;4985565;28;20038;-84
2023/03/30 09:33:19;;;;;;;54.80;8.23;;;12.60;99.90;;;;;;4976238;28;20030;-82
2023/03/30 09:36:18;;;;;;;42.00;5.97;;;12.80;99.90;;;;;;4979580;28;20917;-83
2023/03/30 09:38:44;;;;;;;50.70;7.05;;;12.80;99.90;;;;;;4972378;28;20047;-83
2023/03/30 09:41:10;;;;;;;47.33;6.13;;;12.90;99.90;;;;;;4981333;28;20086;-82
2023/03/30 09:43:45;;;;;;;41.70;5.72;;;12.90;99.90;;;;;;4960999;28;20030;-84
2023/03/30 09:46:12;;;;;;;40.85;6.57;;;13.50;99.90;;;;;;4959124;28;20533;-82
2023/03/30 09:48:42;;;;;;;51.40;7.05;;;14.10;99.90;;;;;;4986113;28;20194;-84
2023/03/30 09:51:15;;;;;;;47.92;6.53;;;14.40;99.90;;;;;;4977774;28;20908;-83
2023/03/30 09:53:43;;;;;;;37.90;5.63;;;14.50;99.90;;;;;;4983271;28;20031;-84
2023/03/30 09:56:15;;;;;;;54.70;7.53;;;14.80;99.90;;;;;;4986897;28;20030;-81
2023/03/30 09:58:41;;;;;;;43.28;5.78;;;14.90;99.90;;;;;;4981394;28;20673;-81
2023/03/30 10:01:15;;;;;;;46.72;6.30;;;14.80;99.90;;;;;;4988474;28;20026;-83
2023/03/30 10:03:42;;;;;;;39.10;5.93;;;14.90;99.90;;;;;;4988664;28;20022;-82
2023/03/30 10:06:18;;;;;;;47.60;6.47;;;15.00;99.90;;;;;;4989719;28;20838;-83
2023/03/30 10:08:50;;;;;;;52.75;6.68;;;14.90;99.90;;;;;;4983474;28;20031;-84
2023/03/30 10:11:39;;;;;;;49.80;7.07;;;14.70;99.90;;;;;;4989422;28;20133;-82
2023/03/30 10:14:10;;;;;;;40.33;6.40;;;14.20;99.90;;;;;;4974805;28;20871;-80
2023/03/30 10:16:36;;;;;;;51.00;6.82;;;14.00;99.90;;;;;;4988019;28;20081;-83
2023/03/30 10:19:06;;;;;;;59.58;7.05;;;13.70;99.90;;;;;;4986937;28;20046;-83
2023/03/30 10:21:39;;;;;;;53.30;8.23;;;13.70;99.90;;;;;;4966437;28;20041;-83
2023/03/30 10:24:17;;;;;;;42.83;6.03;;;13.60;99.90;;;;;;4968746;28;20081;-81
2023/03/30 10:26:46;;;;;;;45.50;5.85;;;13.50;99.90;;;;;;4989250;28;20030;-84
2023/03/30 10:29:15;;;;;;;39.92;5.93;;;13.60;99.90;;;;;;4988049;28;20038;-83
2023/03/30 10:31:51;;;;;;;43.08;6.18;;;13.70;99.90;;;;;;4986450;28;20122;-81
2023/03/30 10:34:39;;;;;;;38.03;5.20;;;14.00;99.90;;;;;;4983999;28;20482;-81
2023/03/30 10:37:31;;;;;;;41.83;6.45;;;14.20;99.90;;;;;;4987271;28;20036;-83
2023/03/30 10:39:58;;;;;;;47.55;6.68;;;14.40;99.90;;;;;;4974094;28;20038;-84
2023/03/30 10:42:26;;;;;;;48.03;6.35;;;14.70;99.90;;;;;;4978701;28;20038;-82
2023/03/30 10:45:01;;;;;;;49.67;6.65;;;15.60;99.90;;;;;;4982291;28;20118;-80
2023/03/30 10:47:57;;;;;;;41.50;6.18;;;15.70;99.90;;;;;;4979557;28;20093;-81
2023/03/30 10:50:39;;;;;;;34.05;5.05;;;15.90;99.90;;;;;;4965795;28;20059;-83
2023/03/30 10:53:25;;;;;;;43.60;6.07;;;15.50;99.90;;;;;;4958745;28;20030;-82
2023/03/30 10:55:58;;;;;;;35.97;5.63;;;15.80;99.90;;;;;;4966889;28;20042;-80
2023/03/30 10:58:58;;;;;;;31.10;5.40;;;16.70;99.90;;;;;;4968199;28;20058;-82
2023/03/30 11:01:53;;;;;;;34.13;5.18;;;16.30;96.40;;;;;;4987754;28;20058;-82
2023/03/30 11:04:40;;;;;;;41.55;5.93;;;16.50;99.90;;;;;;4986798;28;20022;-81
2023/03/30 11:07:14;;;;;;;38.10;5.70;;;16.20;99.90;;;;;;4969787;28;20041;-81
2023/03/30 11:09:46;;;;;;;36.95;5.20;;;16.20;99.90;;;;;;4970034;28;20521;-80
2023/03/30 11:12:18;;;;;;;41.50;6.00;;;16.00;99.90;;;;;;4986416;28;20057;-82
2023/03/30 11:14:55;;;;;;;36.75;5.40;;;15.60;99.90;;;;;;4970350;28;20489;-83
2023/03/30 11:17:21;;;;;;;42.85;5.88;;;15.70;99.90;;;;;;4987865;28;20181;-82
2023/03/30 11:19:55;;;;;;;39.78;5.25;;;16.10;99.90;;;;;;4977984;28;20038;-82
2023/03/30 11:22:23;;;;;;;32.88;6.15;;;16.00;99.90;;;;;;4966337;28;20117;-83
2023/03/30 11:24:51;;;;;;;36.65;5.78;;;16.10;99.90;;;;;;4987158;28;20398;-80
2023/03/30 11:27:20;;;;;;;38.95;5.70;;;16.00;99.90;;;;;;4972427;28;20452;-81
2023/03/30 11:29:55;;;;;;;41.80;5.80;;;16.10;99.90;;;;;;4981273;28;20584;-80
2023/03/30 11:32:36;;;;;;;45.95;6.57;;;15.70;99.90;;;;;;4988013;28;20146;-83
2023/03/30 11:35:11;;;;;;;40.83;6.18;;;15.00;99.90;;;;;;4980249;28;20030;-81
2023/03/30 11:37:46;;;;;;;40.60;5.55;;;14.50;99.90;;;;;;4967642;28;20402;-83
2023/03/30 11:40:37;;;;;;;42.38;6.95;;;14.40;99.90;;;;;;4959453;28;20042;-83
2023/03/30 11:43:03;;;;;;;;;;;14.50;99.90;;;;;;4956686;28;20121;-82
2023/03/30 11:45:38;;;;;;;37.00;4.40;;;15.00;99.90;;;;;;4987532;28;20484;-83
2023/03/30 11:48:21;;;;;;;42.30;5.75;;;16.20;99.90;;;;;;4983920;28;20030;-80
2023/03/30 11:50:52;;;;;;;38.45;5.80;;;17.10;97.70;;;;;;4986463;28;20050;-81
2023/03/30 11:53:38;;;;;;;42.10;6.20;;;17.10;99.70;;;;;;4979700;28;20118;-81
2023/03/30 11:56:09;;;;;;;35.80;5.65;;;17.70;99.90;;;;;;4977390;28;20030;-82
2023/03/30 11:58:53;;;;;;;40.92;5.82;;;16.90;95.00;;;;;;4986905;28;20042;-80
2023/03/30 12:01:37;;;;;;;32.35;5.75;;;17.00;99.80;;;;;;4986584;28;20065;-82
2023/03/30 12:04:11;;;;;;;28.73;5.32;;;17.20;92.80;;;;;;4984158;28;20030;-83
2023/03/30 12:06:56;;;;;;;41.10;6.57;;;17.60;94.70;;;;;;4972696;28;20023;-81
2023/03/30 12:09:25;;;;;;;45.53;6.60;;;17.80;92.30;;;;;;4969244;28;20041;-79
2023/03/30 12:12:16;;;;;;;43.15;7.63;;;17.50;93.50;;;;;;4986875;28;20168;-83
2023/03/30 12:14:59;;;;;;;32.25;5.75;;;16.80;97.00;;;;;;4981697;28;20041;-84
2023/03/30 12:17:43;;;;;;;31.02;5.90;;;16.30;99.20;;;;;;4991573;28;20068;-79
2023/03/30 12:20:09;;;;;;;40.70;6.18;;;16.60;98.00;;;;;;4971967;28;20447;-82
2023/03/30 12:22:47;;;;;;;39.10;5.28;;;17.80;99.90;;;;;;4990313;28;20030;-82
2023/03/30 12:25:13;;;;;;;39.80;6.35;;;17.80;94.00;;;;;;4984690;28;20042;-84
2023/03/30 12:28:15;;;;;;;36.45;5.43;;;17.80;90.30;;;;;;4969714;28;20039;-85
2023/03/30 12:30:53;;;;;;;43.30;6.35;;;17.70;94.60;;;;;;4928934;28;20454;-83
2023/03/30 12:33:47;;;;;;;38.45;6.10;;;18.10;93.20;;;;;;4982467;28;20070;-84
2023/03/30 12:36:37;;;;;;;34.70;5.22;;;18.70;91.60;;;;;;4977688;28;20042;-83
2023/03/30 12:39:06;;;;;;;33.35;5.47;;;18.30;89.00;;;;;;4975346;28;20030;-85
2023/03/30 12:41:43;;;;;;;34.88;5.72;;;17.80;93.20;;;;;;4955329;28;20041;-82
2023/03/30 12:44:28;;;;;;;37.15;5.72;;;17.50;91.70;;;;;;4972626;28;20128;-84
2023/03/30 12:47:17;;;;;;;37.58;6.03;;;17.40;92.90;;;;;;4990078;28;20645;-85
2023/03/30 12:50:21;;;;;;;45.72;6.22;;;16.90;95.70;;;;;;4991672;28;20023;-85
2023/03/30 12:53:12;;;;;;;31.90;5.15;;;16.40;99.90;;;;;;4991984;28;20049;-85
2023/03/30 12:56:02;;;;;;;34.45;4.60;;;15.70;99.90;;;;;;4986730;28;20026;-84
2023/03/30 12:58:39;;;;;;;30.58;3.47;;;15.20;99.90;;;;;;4972680;28;20066;-86
2023/03/30 13:01:49;;;;;;;31.15;4.15;;;14.90;99.90;;;;;;4972628;28;20034;-82